Time,TemperatureF,DewpointF,PressureIn,WindDirection,WindDirectionDegrees,WindSpeedMPH,WindSpeedGustMPH,Humidity,HourlyPrecipIn,Conditions,Clouds,dailyrainin,SolarRadiationWatts/m^2,SoftwareType,DateUTC
2013-03-28 00:00:00,33.8,27.4,30.26,ESE,121,0.0,0.0,77,0.00,,,0.00,0,Wunderground v.1.15,2013-03-28 05:00:00,
2013-03-28 00:10:00,33.7,27.9,30.26,ESE,121,0.0,0.0,79,0.00,,,0.00,0,Wunderground v.1.15,2013-03-28 05:10:00,
2013-03-28 00:20:00,33.2,27.7,30.26,ESE,121,0.0,0.0,80,0.00,,,0.00,0,Wunderground v.1.15,2013-03-28 05:20:00,
2013-03-28 00:30:00,33.1,27.6,30.26,ESE,121,0.0,0.0,80,0.00,,,0.00,0,Wunderground v.1.15,2013-03-28 05:30:00,
2013-03-28 00:40:00,32.7,27.5,30.26,ESE,121,0.0,0.0,81,0.00,,,0.00,0,Wunderground v.1.15,2013-03-28 05:40:00,
2013-03-28 00:50:00,32.2,26.7,30.26,ESE,121,0.0,0.0,80,0.00,,,0.00,0,Wunderground v.1.15,2013-03-28 05:50:00,
2013-03-28 01:00:00,31.9,27.0,30.26,ESE,121,0.0,0.0,82,0.00,,,0.00,0,Wunderground v.1.15,2013-03-28 06:00:00,
2013-03-28 01:10:00,31.6,27.0,30.26,ESE,121,0.0,0.0,83,0.00,,,0.00,0,Wunderground v.1.15,2013-03-28 06:10:00,
2013-03-28 01:20:00,31.8,27.5,30.26,ESE,121,0.0,0.0,84,0.00,,,0.00,0,Wunderground v.1.15,2013-03-28 06:20:00,
2013-03-28 01:30:00,32.1,27.8,30.26,ESE,121,0.0,0.0,84,0.00,,,0.00,0,Wunderground v.1.15,2013-03-28 06:30:00,
2013-03-28 01:40:00,31.8,27.2,30.26,ESE,121,0.0,0.0,83,0.00,,,0.00,0,Wunderground v.1.15,2013-03-28 06:40:00,
2013-03-28 01:50:00,31.0,26.4,30.26,ESE,121,0.0,0.0,83,0.00,,,0.00,0,Wunderground v.1.15,2013-03-28 06:50:00,
2013-03-28 02:00:00,31.0,26.7,30.26,ESE,121,0.0,0.0,84,0.00,,,0.00,0,Wunderground v.1.15,2013-03-28 07:00:00,
2013-03-28 02:10:00,31.2,26.9,30.26,ESE,121,0.0,0.0,84,0.00,,,0.00,0,Wunderground v.1.15,2013-03-28 07:10:00,
2013-03-28 02:20:00,30.9,26.9,30.25,ESE,121,0.0,0.0,85,0.00,,,0.00,0,Wunderground v.1.15,2013-03-28 07:20:00,
2013-03-28 02:30:00,31.8,27.5,30.25,ESE,121,0.0,0.0,84,0.00,,,0.00,0,Wunderground v.1.15,2013-03-28 07:30:00,
2013-03-28 02:40:00,31.6,27.3,30.25,ESE,121,0.0,0.0,84,0.00,,,0.00,0,Wunderground v.1.15,2013-03-28 07:40:00,
2013-03-28 02:50:00,31.6,27.3,30.25,ESE,121,0.0,0.0,84,0.00,,,0.00,0,Wunderground v.1.15,2013-03-28 07:50:00,
2013-03-28 03:00:00,30.6,25.8,30.25,ESE,121,0.0,0.0,82,0.00,,,0.00,0,Wunderground v.1.15,2013-03-28 08:00:00,
2013-03-28 03:10:00,29.8,25.6,30.24,ESE,121,0.0,0.0,84,0.00,,,0.00,0,Wunderground v.1.15,2013-03-28 08:10:00,
2013-03-28 03:20:00,29.4,25.4,30.24,ESE,121,0.0,0.0,85,0.00,,,0.00,0,Wunderground v.1.15,2013-03-28 08:20:00,
2013-03-28 03:30:00,29.0,24.8,30.24,ESE,121,0.0,0.0,84,0.00,,,0.00,0,Wunderground v.1.15,2013-03-28 08:30:00,
2013-03-28 03:40:00,29.7,26.3,30.24,ESE,121,0.0,0.0,87,0.00,,,0.00,0,Wunderground v.1.15,2013-03-28 08:40:00,
2013-03-28 03:50:00,30.1,26.7,30.24,ESE,121,0.0,0.0,87,0.00,,,0.00,0,Wunderground v.1.15,2013-03-28 08:50:00,
2013-03-28 04:00:00,29.1,25.4,30.24,ESE,121,0.0,0.0,86,0.00,,,0.00,0,Wunderground v.1.15,2013-03-28 09:00:00,
2013-03-28 04:10:00,29.0,25.6,30.24,ESE,121,0.0,0.0,87,0.00,,,0.00,0,Wunderground v.1.15,2013-03-28 09:10:00,
2013-03-28 04:20:00,28.8,25.4,30.24,ESE,121,0.0,0.0,87,0.00,,,0.00,0,Wunderground v.1.15,2013-03-28 09:20:00,
2013-03-28 04:30:00,29.3,26.2,30.24,ESE,121,0.0,0.0,88,0.00,,,0.00,0,Wunderground v.1.15,2013-03-28 09:30:00,
2013-03-28 04:40:00,29.1,26.0,30.24,ESE,121,0.0,0.0,88,0.00,,,0.00,0,Wunderground v.1.15,2013-03-28 09:40:00,
2013-03-28 04:50:00,28.8,25.4,30.23,ESE,121,0.0,0.0,87,0.00,,,0.00,0,Wunderground v.1.15,2013-03-28 09:50:00,
2013-03-28 05:00:00,28.2,24.8,30.23,ESE,121,0.0,0.0,87,0.00,,,0.00,0,Wunderground v.1.15,2013-03-28 10:00:00,
2013-03-28 05:10:00,29.7,26.9,30.23,ESE,121,0.0,0.0,89,0.00,,,0.00,0,Wunderground v.1.15,2013-03-28 10:10:00,
2013-03-28 05:20:00,28.1,24.7,30.23,ESE,121,0.0,0.0,87,0.00,,,0.00,0,Wunderground v.1.15,2013-03-28 10:20:00,
2013-03-28 05:30:00,28.2,25.4,30.23,ESE,121,0.0,0.0,89,0.00,,,0.00,0,Wunderground v.1.15,2013-03-28 10:30:00,
2013-03-28 05:40:00,27.3,24.2,30.23,ESE,121,0.0,0.0,88,0.00,,,0.00,0,Wunderground v.1.15,2013-03-28 10:40:00,
2013-03-28 05:50:00,27.9,25.1,30.24,ESE,121,0.0,0.0,89,0.00,,,0.00,0,Wunderground v.1.15,2013-03-28 10:50:00,
2013-03-28 06:00:00,28.4,25.8,30.24,ESE,121,0.0,0.0,90,0.00,,,0.00,0,Wunderground v.1.15,2013-03-28 11:00:00,
2013-03-28 06:10:00,27.5,24.7,30.24,ESE,121,0.0,0.0,89,0.00,,,0.00,0,Wunderground v.1.15,2013-03-28 11:10:00,
2013-03-28 06:20:00,27.5,24.7,30.24,ESE,121,0.0,0.0,89,0.00,,,0.00,0,Wunderground v.1.15,2013-03-28 11:20:00,
2013-03-28 06:30:00,27.2,24.1,30.24,ESE,121,0.0,0.0,88,0.00,,,0.00,0,Wunderground v.1.15,2013-03-28 11:30:00,
2013-03-28 06:40:00,27.0,24.5,30.25,ESE,121,0.0,0.0,90,0.00,,,0.00,0,Wunderground v.1.15,2013-03-28 11:40:00,
2013-03-28 06:50:00,26.1,23.0,30.25,ESE,121,0.0,0.0,88,0.00,,,0.00,0,Wunderground v.1.15,2013-03-28 11:50:00,
2013-03-28 07:00:00,26.4,23.6,30.25,ESE,121,0.0,0.0,89,0.00,,,0.00,0,Wunderground v.1.15,2013-03-28 12:00:00,
2013-03-28 07:10:00,27.5,25.0,30.25,ESE,121,0.0,0.0,90,0.00,,,0.00,0,Wunderground v.1.15,2013-03-28 12:10:00,
2013-03-28 07:20:00,27.5,25.0,30.25,ESE,121,0.0,0.0,90,0.00,,,0.00,9,Wunderground v.1.15,2013-03-28 12:20:00,
2013-03-28 07:30:00,27.8,25.2,30.25,ESE,121,0.0,0.0,90,0.00,,,0.00,23,Wunderground v.1.15,2013-03-28 12:30:00,
2013-03-28 07:40:00,27.3,24.8,30.25,ESE,121,0.0,0.0,90,0.00,,,0.00,40,Wunderground v.1.15,2013-03-28 12:40:00,
2013-03-28 07:50:00,27.6,25.3,30.26,ESE,121,0.0,0.0,91,0.00,,,0.00,74,Wunderground v.1.15,2013-03-28 12:50:00,
2013-03-28 08:00:00,28.7,26.4,30.26,ESE,121,0.0,0.0,91,0.00,,,0.00,102,Wunderground v.1.15,2013-03-28 13:00:00,
2013-03-28 08:10:00,29.1,26.8,30.26,ESE,121,0.0,0.0,91,0.00,,,0.00,134,Wunderground v.1.15,2013-03-28 13:10:00,
2013-03-28 08:20:00,29.8,27.5,30.26,ESE,121,0.0,0.0,91,0.00,,,0.00,142,Wunderground v.1.15,2013-03-28 13:20:00,
2013-03-28 08:30:00,32.1,30.0,30.26,ESE,121,0.0,0.0,92,0.00,,,0.00,176,Wunderground v.1.15,2013-03-28 13:30:00,
2013-03-28 08:40:00,33.4,30.8,30.26,ESE,121,0.0,0.0,90,0.00,,,0.00,209,Wunderground v.1.15,2013-03-28 13:40:00,
2013-03-28 08:50:00,34.9,31.7,30.26,ESE,121,0.0,0.0,88,0.00,,,0.00,250,Wunderground v.1.15,2013-03-28 13:50:00,
2013-03-28 09:00:00,35.6,31.2,30.26,ESE,104,2.0,5.0,84,0.00,,,0.00,283,Wunderground v.1.15,2013-03-28 14:00:00,
2013-03-28 09:10:00,36.5,30.3,30.25,ESE,110,5.0,5.0,78,0.00,,,0.00,315,Wunderground v.1.15,2013-03-28 14:10:00,
2013-03-28 09:20:00,37.9,31.3,30.26,ESE,111,2.0,2.0,77,0.00,,,0.00,345,Wunderground v.1.15,2013-03-28 14:20:00,
2013-03-28 09:30:00,38.3,30.1,30.26,ESE,109,4.0,4.0,72,0.00,,,0.00,376,Wunderground v.1.15,2013-03-28 14:30:00,
2013-03-28 09:40:00,39.8,31.2,30.26,ESE,112,2.0,2.0,71,0.00,,,0.00,408,Wunderground v.1.15,2013-03-28 14:40:00,
2013-03-28 09:50:00,40.3,30.6,30.27,ESE,122,1.0,1.0,68,0.00,,,0.00,439,Wunderground v.1.15,2013-03-28 14:50:00,
2013-03-28 10:00:00,41.2,30.7,30.27,ESE,111,1.0,3.0,66,0.00,,,0.00,468,Wunderground v.1.15,2013-03-28 15:00:00,
2013-03-28 10:10:00,41.6,30.7,30.26,ESE,107,3.0,3.0,65,0.00,,,0.00,499,Wunderground v.1.15,2013-03-28 15:10:00,
2013-03-28 10:20:00,42.6,31.3,30.25,ESE,107,1.0,3.0,64,0.00,,,0.00,526,Wunderground v.1.15,2013-03-28 15:20:00,
2013-03-28 10:30:00,43.8,31.2,30.25,SSE,147,1.0,1.0,61,0.00,,,0.00,554,Wunderground v.1.15,2013-03-28 15:30:00,
2013-03-28 10:40:00,44.3,30.9,30.25,ESE,115,1.0,3.0,59,0.00,,,0.00,580,Wunderground v.1.15,2013-03-28 15:40:00,
2013-03-28 10:50:00,44.8,31.3,30.25,ESE,111,2.0,2.0,59,0.00,,,0.00,606,Wunderground v.1.15,2013-03-28 15:50:00,
2013-03-28 11:00:00,45.1,30.8,30.25,East,86,2.0,2.0,57,0.00,,,0.00,629,Wunderground v.1.15,2013-03-28 16:00:00,
2013-03-28 11:10:00,46.5,32.1,30.25,NE,40,1.0,3.0,57,0.00,,,0.00,652,Wunderground v.1.15,2013-03-28 16:10:00,
2013-03-28 11:20:00,46.8,31.9,30.25,NE,36,1.0,4.0,56,0.00,,,0.00,666,Wunderground v.1.15,2013-03-28 16:20:00,
2013-03-28 11:30:00,47.3,31.9,30.25,NE,48,2.0,2.0,55,0.00,,,0.00,689,Wunderground v.1.15,2013-03-28 16:30:00,
2013-03-28 11:40:00,47.6,32.2,30.25,ENE,59,3.0,3.0,55,0.00,,,0.00,708,Wunderground v.1.15,2013-03-28 16:40:00,
2013-03-28 11:50:00,48.2,31.4,30.25,NE,47,4.0,4.0,52,0.00,,,0.00,724,Wunderground v.1.15,2013-03-28 16:50:00,
2013-03-28 12:00:00,48.9,31.5,30.25,NE,41,4.0,4.0,51,0.00,,,0.00,759,Wunderground v.1.15,2013-03-28 17:00:00,
2013-03-28 12:10:00,49.4,31.0,30.25,NE,47,4.0,4.0,49,0.00,,,0.00,680,Wunderground v.1.15,2013-03-28 17:10:00,
2013-03-28 12:20:00,49.6,29.6,30.24,NE,55,5.0,6.0,46,0.00,,,0.00,770,Wunderground v.1.15,2013-03-28 17:20:00,
2013-03-28 12:30:00,50.7,31.7,30.24,ENE,62,5.0,5.0,48,0.00,,,0.00,823,Wunderground v.1.15,2013-03-28 17:30:00,
2013-03-28 12:40:00,50.7,31.2,30.24,NE,36,5.0,5.0,47,0.00,,,0.00,846,Wunderground v.1.15,2013-03-28 17:40:00,
2013-03-28 12:50:00,51.7,31.6,30.23,NE,38,4.0,9.0,46,0.00,,,0.00,840,Wunderground v.1.15,2013-03-28 17:50:00,
2013-03-28 13:00:00,52.2,32.0,30.23,ENE,63,5.0,5.0,46,0.00,,,0.00,819,Wunderground v.1.15,2013-03-28 18:00:00,
2013-03-28 13:10:00,53.1,32.3,30.22,ENE,63,5.0,5.0,45,0.00,,,0.00,851,Wunderground v.1.15,2013-03-28 18:10:00,
2013-03-28 13:20:00,53.6,34.9,30.22,NE,53,4.0,5.0,49,0.00,,,0.00,809,Wunderground v.1.15,2013-03-28 18:20:00,
2013-03-28 13:30:00,53.9,31.9,30.22,ENE,58,6.0,6.0,43,0.00,,,0.00,795,Wunderground v.1.15,2013-03-28 18:30:00,
2013-03-28 13:40:00,54.8,31.5,30.22,NE,50,4.0,9.0,41,0.00,,,0.00,520,Wunderground v.1.15,2013-03-28 18:40:00,
2013-03-28 13:50:00,55.3,32.0,30.21,NE,48,4.0,6.0,41,0.00,,,0.00,895,Wunderground v.1.15,2013-03-28 18:50:00,
2013-03-28 14:00:00,55.4,30.8,30.21,East,90,3.0,5.0,39,0.00,,,0.00,417,Wunderground v.1.15,2013-03-28 19:00:00,
2013-03-28 14:10:00,56.5,31.2,30.20,NE,52,3.0,8.0,38,0.00,,,0.00,517,Wunderground v.1.15,2013-03-28 19:10:00,
2013-03-28 14:20:00,57.2,31.1,30.19,ENE,74,4.0,6.0,37,0.00,,,0.00,802,Wunderground v.1.15,2013-03-28 19:20:00,
2013-03-28 14:30:00,57.5,30.0,30.19,SSW,202,3.0,3.0,35,0.00,,,0.00,805,Wunderground v.1.15,2013-03-28 19:30:00,
2013-03-28 14:40:00,58.1,30.6,30.18,SE,128,2.0,2.0,35,0.00,,,0.00,817,Wunderground v.1.15,2013-03-28 19:40:00,
2013-03-28 14:50:00,58.3,30.7,30.18,ESE,107,2.0,3.0,35,0.00,,,0.00,786,Wunderground v.1.15,2013-03-28 19:50:00,
2013-03-28 15:00:00,58.4,30.1,30.18,ESE,109,1.0,5.0,34,0.00,,,0.00,490,Wunderground v.1.15,2013-03-28 20:00:00,
2013-03-28 15:10:00,58.6,30.3,30.18,SE,124,2.0,5.0,34,0.00,,,0.00,445,Wunderground v.1.15,2013-03-28 20:10:00,
2013-03-28 15:20:00,59.0,31.4,30.17,East,97,1.0,4.0,35,0.00,,,0.00,471,Wunderground v.1.15,2013-03-28 20:20:00,
2013-03-28 15:30:00,58.9,30.6,30.17,ESE,119,2.0,2.0,34,0.00,,,0.00,872,Wunderground v.1.15,2013-03-28 20:30:00,
2013-03-28 15:40:00,58.7,29.6,30.16,South,170,2.0,2.0,33,0.00,,,0.00,322,Wunderground v.1.15,2013-03-28 20:40:00,
2013-03-28 15:50:00,58.3,29.3,30.16,ESE,111,3.0,3.0,33,0.00,,,0.00,239,Wunderground v.1.15,2013-03-28 20:50:00,
2013-03-28 16:00:00,58.1,28.4,30.16,ESE,111,0.0,0.0,32,0.00,,,0.00,188,Wunderground v.1.15,2013-03-28 21:00:00,
2013-03-28 16:10:00,58.0,29.0,30.17,ESE,111,0.0,0.0,33,0.00,,,0.00,359,Wunderground v.1.15,2013-03-28 21:10:00,
2013-03-28 16:20:00,59.0,28.4,30.17,ESE,114,1.0,3.0,31,0.00,,,0.00,629,Wunderground v.1.15,2013-03-28 21:20:00,
2013-03-28 16:30:00,59.8,28.3,30.17,ESE,123,2.0,2.0,30,0.00,,,0.00,594,Wunderground v.1.15,2013-03-28 21:30:00,
2013-03-28 16:40:00,59.0,28.4,30.15,ENE,77,2.0,3.0,31,0.00,,,0.00,221,Wunderground v.1.15,2013-03-28 21:40:00,
2013-03-28 16:50:00,58.6,28.0,30.15,ESE,107,3.0,5.0,31,0.00,,,0.00,246,Wunderground v.1.15,2013-03-28 21:50:00,
2013-03-28 17:00:00,58.7,28.9,30.15,East,97,4.0,4.0,32,0.00,,,0.00,271,Wunderground v.1.15,2013-03-28 22:00:00,
2013-03-28 17:10:00,59.3,29.4,30.15,ENE,65,3.0,3.0,32,0.00,,,0.00,204,Wunderground v.1.15,2013-03-28 22:10:00,
2013-03-28 17:20:00,58.7,28.1,30.15,East,101,3.0,5.0,31,0.00,,,0.00,213,Wunderground v.1.15,2013-03-28 22:20:00,
2013-03-28 17:30:00,59.0,28.4,30.15,ESE,118,2.0,2.0,31,0.00,,,0.00,183,Wunderground v.1.15,2013-03-28 22:30:00,
2013-03-28 17:40:00,58.7,28.9,30.15,ESE,103,4.0,4.0,32,0.00,,,0.00,128,Wunderground v.1.15,2013-03-28 22:40:00,
2013-03-28 17:50:00,58.4,28.6,30.14,ESE,105,3.0,3.0,32,0.00,,,0.00,84,Wunderground v.1.15,2013-03-28 22:50:00,
2013-03-28 18:00:00,58.3,29.3,30.14,East,96,2.0,3.0,33,0.00,,,0.00,86,Wunderground v.1.15,2013-03-28 23:00:00,
2013-03-28 18:10:00,58.1,28.4,30.14,East,96,2.0,2.0,32,0.00,,,0.00,76,Wunderground v.1.15,2013-03-28 23:10:00,
2013-03-28 18:20:00,58.0,29.8,30.15,East,98,1.0,1.0,34,0.00,,,0.00,81,Wunderground v.1.15,2013-03-28 23:20:00,
2013-03-28 18:30:00,57.6,30.1,30.15,East,98,0.0,2.0,35,0.00,,,0.00,72,Wunderground v.1.15,2013-03-28 23:30:00,
2013-03-28 18:40:00,57.3,30.5,30.15,East,98,0.0,0.0,36,0.00,,,0.00,74,Wunderground v.1.15,2013-03-28 23:40:00,
2013-03-28 18:50:00,57.0,31.6,30.16,East,98,0.0,0.0,38,0.00,,,0.00,58,Wunderground v.1.15,2013-03-28 23:50:00,
2013-03-28 19:00:00,56.5,31.2,30.16,East,98,0.0,0.0,38,0.00,,,0.00,42,Wunderground v.1.15,2013-03-29 00:00:00,
2013-03-28 19:10:00,56.2,30.2,30.16,East,98,0.0,0.0,37,0.00,,,0.00,44,Wunderground v.1.15,2013-03-29 00:10:00,
2013-03-28 19:20:00,55.7,30.5,30.17,East,98,0.0,0.0,38,0.00,,,0.00,25,Wunderground v.1.15,2013-03-29 00:20:00,
2013-03-28 19:30:00,55.1,30.6,30.17,East,98,0.0,0.0,39,0.00,,,0.00,18,Wunderground v.1.15,2013-03-29 00:30:00,
2013-03-28 19:40:00,54.4,30.6,30.17,East,98,0.0,0.0,40,0.00,,,0.00,9,Wunderground v.1.15,2013-03-29 00:40:00,
2013-03-28 19:50:00,53.8,30.6,30.17,East,98,0.0,0.0,41,0.00,,,0.00,0,Wunderground v.1.15,2013-03-29 00:50:00,
2013-03-28 20:00:00,53.1,31.2,30.17,East,98,0.0,0.0,43,0.00,,,0.00,0,Wunderground v.1.15,2013-03-29 01:00:00,
2013-03-28 20:10:00,52.3,31.0,30.18,East,98,0.0,0.0,44,0.00,,,0.00,0,Wunderground v.1.15,2013-03-29 01:10:00,
2013-03-28 20:20:00,51.6,30.9,30.18,East,98,0.0,0.0,45,0.00,,,0.00,0,Wunderground v.1.15,2013-03-29 01:20:00,
2013-03-28 20:30:00,50.7,30.7,30.18,East,98,0.0,0.0,46,0.00,,,0.00,0,Wunderground v.1.15,2013-03-29 01:30:00,
2013-03-28 20:40:00,50.2,30.7,30.18,East,98,0.0,0.0,47,0.00,,,0.00,0,Wunderground v.1.15,2013-03-29 01:40:00,
2013-03-28 20:50:00,49.8,30.4,30.18,East,98,0.0,0.0,47,0.00,,,0.00,0,Wunderground v.1.15,2013-03-29 01:50:00,
2013-03-28 21:00:00,49.2,29.8,30.18,East,98,0.0,0.0,47,0.00,,,0.00,0,Wunderground v.1.15,2013-03-29 02:00:00,
2013-03-28 21:10:00,48.0,29.7,30.19,East,98,0.0,0.0,49,0.00,,,0.00,0,Wunderground v.1.15,2013-03-29 02:10:00,
2013-03-28 21:20:00,46.2,29.1,30.19,East,98,0.0,0.0,51,0.00,,,0.00,0,Wunderground v.1.15,2013-03-29 02:20:00,
2013-03-28 21:30:00,45.1,29.4,30.19,East,98,0.0,0.0,54,0.00,,,0.00,0,Wunderground v.1.15,2013-03-29 02:30:00,
2013-03-28 21:40:00,44.8,29.6,30.20,East,98,0.0,0.0,55,0.00,,,0.00,0,Wunderground v.1.15,2013-03-29 02:40:00,
2013-03-28 21:50:00,44.2,29.0,30.20,East,98,0.0,0.0,55,0.00,,,0.00,0,Wunderground v.1.15,2013-03-29 02:50:00,
2013-03-28 22:00:00,43.3,29.1,30.20,East,98,0.0,0.0,57,0.00,,,0.00,0,Wunderground v.1.15,2013-03-29 03:00:00,
2013-03-28 22:10:00,43.3,29.5,30.21,East,98,0.0,0.0,58,0.00,,,0.00,0,Wunderground v.1.15,2013-03-29 03:10:00,
2013-03-28 22:20:00,42.6,29.7,30.21,East,98,0.0,0.0,60,0.00,,,0.00,0,Wunderground v.1.15,2013-03-29 03:20:00,
2013-03-28 22:30:00,42.9,29.5,30.21,East,98,0.0,0.0,59,0.00,,,0.00,0,Wunderground v.1.15,2013-03-29 03:30:00,
2013-03-28 22:40:00,42.5,29.6,30.20,East,98,0.0,0.0,60,0.00,,,0.00,0,Wunderground v.1.15,2013-03-29 03:40:00,
2013-03-28 22:50:00,41.3,28.4,30.20,East,98,0.0,0.0,60,0.00,,,0.00,0,Wunderground v.1.15,2013-03-29 03:50:00,
2013-03-28 23:00:00,39.6,28.4,30.20,East,98,0.0,0.0,64,0.00,,,0.00,0,Wunderground v.1.15,2013-03-29 04:00:00,
2013-03-28 23:10:00,39.3,28.9,30.21,East,98,0.0,0.0,66,0.00,,,0.00,0,Wunderground v.1.15,2013-03-29 04:10:00,
2013-03-28 23:20:00,38.9,29.2,30.20,East,98,0.0,0.0,68,0.00,,,0.00,0,Wunderground v.1.15,2013-03-29 04:20:00,
2013-03-28 23:30:00,38.3,28.7,30.20,East,98,0.0,0.0,68,0.00,,,0.00,0,Wunderground v.1.15,2013-03-29 04:30:00,
2013-03-28 23:40:00,38.0,29.8,30.20,East,98,0.0,0.0,72,0.00,,,0.00,0,Wunderground v.1.15,2013-03-29 04:40:00,
2013-03-28 23:50:00,38.5,31.3,30.20,East,98,0.0,0.0,75,0.00,,,0.00,0,Wunderground v.1.15,2013-03-29 04:50:00,